»·PEaware :: N2577P KVNY-KSNA

N2577P :: KVNY-KSNA

FLIGHT INFORMATION

Flight Status: Arrived
Operator: Privately registered:
United States
More flights under this callsign
Pilot: Pedro L. (16294)
Aircraft: CESSNA 172 SKYHAWK
(C172)
More flights by this aircraft type
Origin: KVNY Van Nuys
United States
Destination: KSNA John Wayne-Orange Co
United States
More flights between these airports :: More routes between these airports
Route: +
File this flight plan on PilotEdge
Remarks: CAT10
Altitude:
(Current/Filed)
5,500ft
Speed:
(Current/Filed)
0kts
Departed: 10-Aug-17 03:17 PM
Arrived: 10-Aug-17 03:58 PM
Distance/Time
Traveled:
44nm/0:41
Distance/Time
To Go:
Arrived

Flight Plot

Page will automatically refresh every two minutes.


Map Options




Map Legend


Flown Route
Filed Route
Departure Airport
Arrival Airport
Navaid (VOR, NDB)
Fix

Horizontal Profiles

Position Reports

Time Latitude Longitude Heading Altitude Ground
Speed
10-Aug-17 15:12 34.208367 -118.492103 72 805ft 0kts
10-Aug-17 15:13 34.208368 -118.492102 72 805ft 0kts
10-Aug-17 15:14 34.208678 -118.491544 25 805ft 9kts
10-Aug-17 15:15 34.213381 -118.491874 356 805ft 20kts
10-Aug-17 15:16 34.218714 -118.492043 75 805ft 7kts
10-Aug-17 15:17 34.218719 -118.492023 77 805ft 0kts
10-Aug-17 15:18 34.218719 -118.492023 77 805ft 0kts
10-Aug-17 15:19 34.218504 -118.491194 171 805ft 2kts
10-Aug-17 15:20 34.200408 -118.489481 171 1363ft 78kts
10-Aug-17 15:21 34.179329 -118.485441 174 2234ft 80kts
10-Aug-17 15:22 34.158444 -118.481293 180 3127ft 73kts
10-Aug-17 15:23 34.154046 -118.503247 303 3867ft 95kts
10-Aug-17 15:24 34.177369 -118.501792 66 4586ft 94kts
10-Aug-17 15:25 34.168297 -118.482339 191 5258ft 80kts
10-Aug-17 15:26 34.159020 -118.508577 247 5551ft 93kts
10-Aug-17 15:27 34.172219 -118.532592 3 5572ft 115kts
10-Aug-17 15:28 34.178679 -118.508840 165 5526ft 94kts
10-Aug-17 15:29 34.153068 -118.502183 170 5487ft 95kts
10-Aug-17 15:30 34.128282 -118.511516 200 5477ft 94kts
10-Aug-17 15:31 34.103568 -118.503083 161 5476ft 96kts
10-Aug-17 15:32 34.079048 -118.490021 158 5484ft 97kts
10-Aug-17 15:33 34.053882 -118.478673 161 5493ft 97kts
10-Aug-17 15:34 34.028983 -118.465582 165 5504ft 97kts
10-Aug-17 15:35 34.003306 -118.455261 165 5513ft 98kts
10-Aug-17 15:36 33.977185 -118.446386 170 5519ft 98kts
10-Aug-17 15:37 33.950563 -118.439902 182 5524ft 97kts
10-Aug-17 15:38 33.924572 -118.430138 148 5533ft 105kts
10-Aug-17 15:39 33.901755 -118.407561 150 5539ft 106kts
10-Aug-17 15:40 33.880390 -118.382305 128 5557ft 112kts
10-Aug-17 15:41 33.857790 -118.357761 145 5575ft 109kts
10-Aug-17 15:42 33.832906 -118.336964 155 5514ft 109kts
10-Aug-17 15:43 33.807538 -118.316595 157 5500ft 109kts
10-Aug-17 15:44 33.781407 -118.298407 157 5489ft 108kts
10-Aug-17 15:45 33.755124 -118.281769 162 5448ft 106kts
10-Aug-17 15:46 33.734778 -118.256578 98 5406ft 118kts
10-Aug-17 15:47 33.735207 -118.217937 103 4909ft 116kts
10-Aug-17 15:48 33.728777 -118.181462 110 4222ft 111kts
10-Aug-17 15:49 33.723595 -118.145870 104 3454ft 108kts
10-Aug-17 15:50 33.721546 -118.110591 101 2709ft 103kts
10-Aug-17 15:51 33.719628 -118.077392 88 2384ft 106kts
10-Aug-17 15:52 33.720372 -118.044038 94 2267ft 101kts
10-Aug-17 15:53 33.722247 -118.009808 88 2413ft 105kts
10-Aug-17 15:54 33.725910 -117.975065 83 2512ft 105kts
10-Aug-17 15:55 33.729528 -117.940190 85 2513ft 106kts
10-Aug-17 15:56 33.734658 -117.905297 86 2507ft 106kts
10-Aug-17 15:57 33.735579 -117.870084 96 2210ft 105kts
10-Aug-17 15:58 33.724881 -117.843548 162 1823ft 90kts
10-Aug-17 15:59 33.704979 -117.850329 207 1116ft 63kts
10-Aug-17 16:00 33.689940 -117.859664 211 343ft 57kts
10-Aug-17 16:01 33.678215 -117.867248 215 60ft 22kts
10-Aug-17 16:02 33.678054 -117.868780 229 60ft 7kts
10-Aug-17 16:03 33.675792 -117.870617 298 60ft 0kts
10-Aug-17 16:04 33.675892 -117.870906 205 60ft 0kts
10-Aug-17 16:05 33.675893 -117.870906 205 60ft 0kts
10-Aug-17 16:06 33.675893 -117.870906 205 60ft 0kts
10-Aug-17 16:07 33.675893 -117.870906 205 60ft 0kts
10-Aug-17 16:08 33.675893 -117.870906 205 60ft 0kts
10-Aug-17 16:09 33.675893 -117.870906 205 60ft 0kts
10-Aug-17 16:10 33.675893 -117.870906 205 60ft 0kts
10-Aug-17 16:11 33.675893 -117.870906 205 60ft 0kts
10-Aug-17 16:12 33.675893 -117.870906 205 60ft 0kts
10-Aug-17 16:13 33.675893 -117.870906 205 60ft 0kts
10-Aug-17 16:14 33.675893 -117.870906 205 60ft 0kts
10-Aug-17 16:15 33.675893 -117.870906 205 60ft 0kts

Navigation Log

Ident Type
1. KVNY Airport
2. KSNA Airport